Flight Track Log - Related Links

Times and Time Zones

All times are in EDT time to prevent confusion due to time zone crossing. See the SWA378 flight status page for this flight to view local times or setup timezone preferences in your user account.

Time Position Orientation Groundspeed Altitude Reporting Facility
EDT Latitude Longitude Course Direction KTS MPH feet Rate Location/Type
Tue 06:12:27 PM 33.6167 -84.5000 101° East 214 246 4,200  Level Atlanta TRACON
Tue 06:13:27 PM 33.5833 -84.5833 244° Southwest 287 330 7,500 2,900 Climbing Atlanta TRACON
Tue 06:14:27 PM 33.5000 -84.5833 180° South 306 352 10,000 1,987 Climbing Atlanta TRACON
Tue 06:15:58 PM 33.4575 -84.4622 113° Southeast 310 357 12,500 2,424 Climbing Atlanta Center
Tue 06:16:58 PM 33.4558 -84.3425 91° East 334 384 16,100 3,400 Climbing Atlanta Center
Tue 06:17:00 PM 33.6772 -83.7961 101° East  Level FlightAware Approximate
Tue 06:17:58 PM 33.4789 -84.2256 77° East 351 404 19,300  Level Atlanta Center
Tue 06:18:58 PM 33.5311 -84.1036 63° Northeast 380 437 22,000 1,850 Climbing Atlanta Center
Tue 06:19:58 PM 33.5792 -83.9839 64° Northeast 380 437 23,000 500 Climbing Atlanta Center
Tue 06:20:58 PM 33.6167 -83.8617 70° East 386 444 23,000 750 Level Atlanta Center
Tue 06:21:58 PM 33.6414 -83.7344 77° East 386 444 24,500 1,900 Climbing Atlanta Center
Tue 06:22:58 PM 33.6744 -83.6044 73° East 391 450 26,800 1,950 Climbing Atlanta Center
Tue 06:23:58 PM 33.7242 -83.4819 64° Northeast 405 466 28,400 1,500 Climbing Atlanta Center
Tue 06:24:58 PM 33.7778 -83.3464 65° Northeast 430 495 29,800 1,650 Climbing Atlanta Center
Tue 06:25:58 PM 33.8331 -83.2086 64° Northeast 446 513 31,700 1,900 Climbing Atlanta Center
Tue 06:26:58 PM 33.8928 -83.0678 63° Northeast 453 521 33,600 1,150 Climbing Atlanta Center
Tue 06:27:58 PM 33.9478 -82.9269 65° Northeast 461 531 34,000 950 Climbing Atlanta Center
Tue 06:28:58 PM 34.0050 -82.7833 64° Northeast 466 536 35,500 1,500 Climbing Atlanta Center
Tue 06:29:58 PM 34.0575 -82.6422 66° East 461 531 37,000 1,350 Climbing Atlanta Center
Tue 06:30:58 PM 34.1164 -82.5008 63° Northeast 461 531 38,200 950 Climbing Atlanta Center
Tue 06:31:58 PM 34.1692 -82.3742 63° Northeast 461 531 38,900 400 Climbing Atlanta Center
Tue 06:32:58 PM 34.2214 -82.2275 67° East 466 536 39,000 50 Climbing Atlanta Center
Tue 06:33:58 PM 34.2858 -82.0853 61° Northeast 466 536 39,000  Level Atlanta Center
Tue 06:34:58 PM 34.3525 -81.9503 59° Northeast 466 536 39,000  Level Atlanta Center
Tue 06:35:58 PM 34.4231 -81.8128 58° Northeast 466 536 39,000  Level Atlanta Center
Tue 06:36:58 PM 34.4875 -81.6750 60° Northeast 472 543 39,000  Level Atlanta Center
Tue 06:37:58 PM 34.5578 -81.5417 57° Northeast 477 549 39,000  Level Atlanta Center
Tue 06:38:58 PM 34.6258 -81.4033 59° Northeast 477 549 39,000  Level Atlanta Center
Tue 06:39:58 PM 34.6978 -81.2547 59° Northeast 464 534 39,000  Level Atlanta Center
Tue 06:40:58 PM 34.7653 -81.1158 59° Northeast 464 534 39,000  Level Atlanta Center
Tue 06:41:58 PM 34.8331 -80.9819 58° Northeast 470 541 39,000  Level Atlanta Center
Tue 06:42:58 PM 34.8983 -80.8453 60° Northeast 470 541 39,000  Level Atlanta Center
Tue 06:43:58 PM 34.9678 -80.7033 59° Northeast 478 550 39,000  Level Atlanta Center
Tue 06:44:58 PM 35.0347 -80.5636 60° Northeast 478 550 39,000 -570 Level Atlanta Center
Tue 06:46:57 PM 35.1553 -80.3094 60° Northeast 463 533 37,300 -670 Descending Washington Center
Tue 06:47:57 PM 35.2114 -80.1553 66° East 475 547 37,000 -149 Descending Washington Center
Tue 06:48:58 PM 35.2656 -79.9928 68° East 475 547 37,000  Level Washington Center
Tue 06:49:58 PM 35.3147 -79.8428 68° East 469 540 37,000 -101 Level Washington Center
Tue 06:50:57 PM 35.3597 -79.6900 70° East 469 540 36,800 -600 Descending Washington Center
Tue 06:51:58 PM 35.4086 -79.5394 68° East 469 540 35,800 -1,041 Descending Washington Center
Tue 06:52:58 PM 35.4594 -79.3917 67° East 469 540 34,700 -966 Descending Washington Center
Tue 06:53:56 PM 35.5011 -79.2608 69° East 464 534 33,900 -857 Descending Washington Center
Tue 06:54:57 PM 35.5450 -79.1147 70° East 458 527 33,000 -443 Descending Washington Center
Tue 06:55:58 PM 35.5953 -78.9614 68° East 448 516 33,000 -857 Level Washington Center
Tue 06:56:56 PM 35.6392 -78.8122 70° East 448 516 31,300 -1,850 Descending Washington Center
Tue 06:57:58 PM 35.6761 -78.6706 72° East 443 510 29,300 -1,150 Descending Washington Center
Tue 06:58:56 PM 35.7069 -78.5261 75° East 438 504 29,000 -151 Descending Washington Center
Tue 06:59:57 PM 35.7333 -78.3836 77° East 430 495 29,000  Level Washington Center
Tue 07:00:58 PM 35.7614 -78.2567 75° East 430 495 29,000 -694 Level Washington Center
Tue 07:01:58 PM 35.7978 -78.1119 73° East 430 495 27,600 -2,034 Descending Washington Center
Tue 07:02:56 PM 35.8444 -77.9700 68° East 435 501 25,000 -2,288 Descending Washington Center
Tue 07:03:56 PM 35.9033 -77.8433 60° Northeast 434 499 23,100 -1,438 Descending Washington Center
Tue 07:04:57 PM 35.9661 -77.7219 57° Northeast 420 483 22,100 -984 Descending Washington Center
Tue 07:05:58 PM 36.0264 -77.6106 56° Northeast 409 471 21,100 -1,131 Descending Washington Center
Tue 07:06:59 PM 36.0867 -77.4992 56° Northeast 397 457 19,800 -1,373 Descending Washington Center
Tue 07:07:56 PM 36.1467 -77.3875 56° Northeast 392 451 18,400 -1,462 Descending Washington Center
Tue 07:08:58 PM 36.2069 -77.2703 57° Northeast 380 437 16,900 -1,453 Descending Washington Center
Tue 07:09:31 PM 36.2411 -77.2169 52° Northeast 374 430 16,100 -1,300 Descending Washington Center
Tue 07:09:58 PM 36.2647 -77.1633 61° Northeast 373 429 15,600 -1,333 Descending Washington Center
Tue 07:10:25 PM 36.2903 -77.1175 55° Northeast 366 421 14,900 -1,138 Descending Washington Center
Tue 07:10:56 PM 36.3117 -77.0717 60° Northeast 368 423 14,500 -984 Descending Washington Center
Tue 07:11:26 PM 36.3436 -77.0153 55° Northeast 356 410 13,900 -1,475 Descending Washington Center
Tue 07:11:57 PM 36.3714 -76.9719 51° Northeast 363 418 13,000 -2,182 Descending Washington Center
Tue 07:12:21 PM 36.3989 -76.9261 53° Northeast 351 404 11,900 -1,800 Descending Washington Center
Tue 07:12:57 PM 36.4289 -76.8750 54° Northeast 351 404 11,200 -900 Descending Washington Center
Tue 07:13:21 PM 36.4564 -76.8342 50° Northeast 337 388 11,000 -492 Descending Washington Center
Tue 07:13:58 PM 36.4797 -76.7906 56° Northeast 333 383 10,700 -1,309 Descending Washington Center
Tue 07:14:16 PM 36.5008 -76.7572 52° Northeast 289 333 9,800 -1,932 Descending Washington Center
Tue 07:14:57 PM 36.5306 -76.7061 54° Northeast 310 357 8,800 -1,645 Descending Washington Center
Tue 07:15:18 PM 36.5497 -76.6778 50° Northeast 294 338 8,100 -1,300 Descending Washington Center
Tue 07:15:57 PM 36.5750 -76.6292 57° Northeast 289 333 7,500 -1,364 Descending Washington Center
Tue 07:16:24 PM 36.5983 -76.5881 55° Northeast 255 293 6,600 -1,377 Descending Washington Center
Tue 07:16:58 PM 36.6194 -76.5572 50° Northeast 268 308 6,100 -1,500 Descending Washington Center
Tue 07:17:32 PM 36.6428 -76.5136 56° Northeast 253 291 4,900 -1,759 Descending Washington Center
Tue 07:17:56 PM 36.6597 -76.4853 53° Northeast 260 299 4,400 -1,100 Descending Washington Center
Tue 07:18:32 PM 36.6892 -76.4389 52° Northeast 263 303 3,800 -984 Descending Washington Center
Tue 07:18:57 PM 36.7019 -76.4131 58° Northeast 255 293 3,400 -806 Descending Washington Center
Tue 07:19:39 PM 36.7336 -76.3617 52° Northeast 245 282 2,900 -1,000 Descending Washington Center
Tue 07:20:33 PM 36.7778 -76.3153 40° Northeast 218 251 1,800 -645 Descending Washington Center
Tue 07:21:40 PM 36.8239 -76.2717 37° Northeast 183 211 1,600 -179 Descending Washington Center

Login

Don't have an account? Register now (free) for customized features, flight alerts, and more!